Main page
METAR-TAF:

METAR-TAF

Airports :

Gibraltar International Airport

Gibraltar, Gibraltar

latitude: 36-09N, longitude: 005-21W, elevation: 5 m

Current weather observation

The report was made 36 minutes ago, at 21:50 UTC
Wind 11 kt from the West/Southwest
Temperature 15°C
Humidity 67%
Pressure 1025 hPa
Visibility 10 km or more

METAR: LXGB 102150Z AUTO 24011KT 9999 // NCD 15/09 Q1025

Time: 23:26 (22:26 UTC)

Forecast

The report was made 5 hours and 31 minutes ago, at 16:55 UTC
Forecast valid from 10 at 18 UTC to 10 at 23 UTC
Wind 8 kt from the West/Southwest
Visibility 10 km or more
no clouds below 1500 m and no cumulonimbus

TAF: LXGB 101655Z 1018/1023 25008KT CAVOK

Weather observations and forecasts of more than 4000 airports (METAR and TAF reports).

The available stations are represented by yellow and red dots on the map.

Hover mouse over dot to see the name of the station.

Then click to see weather observations and forecasts.

To change the map : click on the green buttons with a black cross to zoom in, on the green button with a dash to zoom out, or on the green arrows for adjacent maps.


METAR-TAF: